sensor_id;sensor_type;location;lat;lon;timestamp;P1;durP1;ratioP1;P2;durP2;ratioP2
69534;SDS011;56754;51.568;5.048;2022-11-28T00:01:51;6.67;;;2.67;;
69534;SDS011;56754;51.568;5.048;2022-11-28T00:04:16;6.83;;;2.90;;
69534;SDS011;56754;51.568;5.048;2022-11-28T00:06:45;7.07;;;2.70;;
69534;SDS011;56754;51.568;5.048;2022-11-28T00:09:12;5.85;;;2.58;;
69534;SDS011;56754;51.568;5.048;2022-11-28T00:11:38;5.10;;;2.20;;
69534;SDS011;56754;51.568;5.048;2022-11-28T00:14:04;6.90;;;2.83;;
69534;SDS011;56754;51.568;5.048;2022-11-28T00:16:30;6.20;;;2.50;;
69534;SDS011;56754;51.568;5.048;2022-11-28T00:18:57;6.27;;;2.10;;
69534;SDS011;56754;51.568;5.048;2022-11-28T00:21:24;5.17;;;2.30;;
69534;SDS011;56754;51.568;5.048;2022-11-28T00:23:49;7.15;;;2.58;;
69534;SDS011;56754;51.568;5.048;2022-11-28T00:28:42;6.82;;;2.40;;
69534;SDS011;56754;51.568;5.048;2022-11-28T00:31:15;5.93;;;2.30;;
69534;SDS011;56754;51.568;5.048;2022-11-28T00:33:43;7.40;;;2.55;;
69534;SDS011;56754;51.568;5.048;2022-11-28T00:36:09;5.83;;;2.40;;
69534;SDS011;56754;51.568;5.048;2022-11-28T00:38:35;5.70;;;2.20;;
69534;SDS011;56754;51.568;5.048;2022-11-28T00:41:01;4.75;;;2.45;;
69534;SDS011;56754;51.568;5.048;2022-11-28T00:43:33;5.83;;;2.43;;
69534;SDS011;56754;51.568;5.048;2022-11-28T00:45:58;5.50;;;2.10;;
69534;SDS011;56754;51.568;5.048;2022-11-28T00:48:24;4.73;;;2.17;;
69534;SDS011;56754;51.568;5.048;2022-11-28T00:50:50;4.97;;;2.10;;
69534;SDS011;56754;51.568;5.048;2022-11-28T00:53:15;5.37;;;2.10;;
69534;SDS011;56754;51.568;5.048;2022-11-28T00:55:40;6.22;;;2.50;;
69534;SDS011;56754;51.568;5.048;2022-11-28T00:58:06;5.03;;;2.20;;
69534;SDS011;56754;51.568;5.048;2022-11-28T01:00:32;4.87;;;2.20;;
69534;SDS011;56754;51.568;5.048;2022-11-28T01:02:57;6.72;;;2.33;;
69534;SDS011;56754;51.568;5.048;2022-11-28T01:05:22;6.57;;;2.50;;
69534;SDS011;56754;51.568;5.048;2022-11-28T01:07:48;5.20;;;2.10;;
69534;SDS011;56754;51.568;5.048;2022-11-28T01:10:13;6.17;;;2.20;;
69534;SDS011;56754;51.568;5.048;2022-11-28T01:12:38;5.27;;;2.17;;
69534;SDS011;56754;51.568;5.048;2022-11-28T01:15:05;5.28;;;2.10;;
69534;SDS011;56754;51.568;5.048;2022-11-28T01:17:32;5.27;;;1.80;;
69534;SDS011;56754;51.568;5.048;2022-11-28T01:19:57;5.07;;;2.07;;
69534;SDS011;56754;51.568;5.048;2022-11-28T01:22:23;5.47;;;2.03;;
69534;SDS011;56754;51.568;5.048;2022-11-28T01:24:48;4.90;;;1.80;;
69534;SDS011;56754;51.568;5.048;2022-11-28T01:27:13;5.60;;;2.27;;
69534;SDS011;56754;51.568;5.048;2022-11-28T01:29:39;5.00;;;1.87;;
69534;SDS011;56754;51.568;5.048;2022-11-28T01:32:04;6.57;;;2.40;;
69534;SDS011;56754;51.568;5.048;2022-11-28T01:34:29;5.00;;;1.90;;
69534;SDS011;56754;51.568;5.048;2022-11-28T01:36:55;5.20;;;2.00;;
69534;SDS011;56754;51.568;5.048;2022-11-28T01:39:20;6.45;;;2.20;;
69534;SDS011;56754;51.568;5.048;2022-11-28T01:41:45;5.17;;;1.90;;
69534;SDS011;56754;51.568;5.048;2022-11-28T01:46:36;4.83;;;1.90;;
69534;SDS011;56754;51.568;5.048;2022-11-28T01:51:40;4.28;;;1.80;;
69534;SDS011;56754;51.568;5.048;2022-11-28T01:54:09;5.22;;;2.00;;
69534;SDS011;56754;51.568;5.048;2022-11-28T01:56:46;5.93;;;1.97;;
69534;SDS011;56754;51.568;5.048;2022-11-28T01:59:16;5.53;;;1.95;;
69534;SDS011;56754;51.568;5.048;2022-11-28T02:01:43;4.60;;;1.90;;
69534;SDS011;56754;51.568;5.048;2022-11-28T02:04:09;4.38;;;1.65;;
69534;SDS011;56754;51.568;5.048;2022-11-28T02:06:36;4.73;;;2.10;;
69534;SDS011;56754;51.568;5.048;2022-11-28T02:09:02;4.88;;;1.65;;
69534;SDS011;56754;51.568;5.048;2022-11-28T02:16:50;4.60;;;1.63;;
69534;SDS011;56754;51.568;5.048;2022-11-28T02:22:23;4.95;;;1.75;;
69534;SDS011;56754;51.568;5.048;2022-11-28T02:27:43;5.07;;;1.80;;
69534;SDS011;56754;51.568;5.048;2022-11-28T02:35:32;4.80;;;1.42;;
69534;SDS011;56754;51.568;5.048;2022-11-28T02:38:05;3.55;;;1.50;;
69534;SDS011;56754;51.568;5.048;2022-11-28T02:40:50;4.63;;;1.80;;
69534;SDS011;56754;51.568;5.048;2022-11-28T02:46:25;4.47;;;1.60;;
69534;SDS011;56754;51.568;5.048;2022-11-28T02:49:05;5.57;;;1.70;;
69534;SDS011;56754;51.568;5.048;2022-11-28T02:51:37;4.53;;;1.73;;
69534;SDS011;56754;51.568;5.048;2022-11-28T02:54:08;4.55;;;1.77;;
69534;SDS011;56754;51.568;5.048;2022-11-28T02:56:35;4.30;;;1.67;;
69534;SDS011;56754;51.568;5.048;2022-11-28T02:59:01;4.30;;;1.60;;
69534;SDS011;56754;51.568;5.048;2022-11-28T03:01:28;3.97;;;1.50;;
69534;SDS011;56754;51.568;5.048;2022-11-28T03:04:06;4.10;;;1.50;;
69534;SDS011;56754;51.568;5.048;2022-11-28T03:14:57;3.92;;;1.45;;
69534;SDS011;56754;51.568;5.048;2022-11-28T03:20:47;5.22;;;1.70;;
69534;SDS011;56754;51.568;5.048;2022-11-28T03:23:20;3.67;;;1.50;;
69534;SDS011;56754;51.568;5.048;2022-11-28T03:28:48;4.22;;;1.60;;
69534;SDS011;56754;51.568;5.048;2022-11-28T03:31:30;3.90;;;1.52;;
69534;SDS011;56754;51.568;5.048;2022-11-28T03:34:02;4.90;;;1.40;;
69534;SDS011;56754;51.568;5.048;2022-11-28T03:36:31;3.97;;;1.42;;
69534;SDS011;56754;51.568;5.048;2022-11-28T03:39:04;5.50;;;1.80;;
69534;SDS011;56754;51.568;5.048;2022-11-28T03:41:35;3.85;;;1.50;;
69534;SDS011;56754;51.568;5.048;2022-11-28T03:44:04;5.22;;;2.05;;
69534;SDS011;56754;51.568;5.048;2022-11-28T03:46:36;4.93;;;2.00;;
69534;SDS011;56754;51.568;5.048;2022-11-28T03:49:07;4.20;;;1.70;;
69534;SDS011;56754;51.568;5.048;2022-11-28T03:51:39;5.07;;;1.60;;
69534;SDS011;56754;51.568;5.048;2022-11-28T03:54:17;4.20;;;1.60;;
69534;SDS011;56754;51.568;5.048;2022-11-28T03:59:40;5.35;;;1.85;;
69534;SDS011;56754;51.568;5.048;2022-11-28T04:07:22;4.03;;;1.50;;
69534;SDS011;56754;51.568;5.048;2022-11-28T04:12:58;3.83;;;1.40;;
69534;SDS011;56754;51.568;5.048;2022-11-28T04:15:32;4.25;;;1.67;;
69534;SDS011;56754;51.568;5.048;2022-11-28T04:18:22;3.67;;;1.30;;
69534;SDS011;56754;51.568;5.048;2022-11-28T04:23:43;4.10;;;1.55;;
69534;SDS011;56754;51.568;5.048;2022-11-28T04:29:10;3.70;;;1.40;;
69534;SDS011;56754;51.568;5.048;2022-11-28T04:31:38;4.23;;;1.70;;
69534;SDS011;56754;51.568;5.048;2022-11-28T04:34:07;4.18;;;1.40;;
69534;SDS011;56754;51.568;5.048;2022-11-28T04:36:36;3.90;;;1.60;;
69534;SDS011;56754;51.568;5.048;2022-11-28T04:39:04;4.85;;;1.67;;
69534;SDS011;56754;51.568;5.048;2022-11-28T04:41:38;4.10;;;1.50;;
69534;SDS011;56754;51.568;5.048;2022-11-28T04:44:14;3.70;;;1.40;;
69534;SDS011;56754;51.568;5.048;2022-11-28T04:46:47;4.68;;;1.40;;
69534;SDS011;56754;51.568;5.048;2022-11-28T04:49:16;4.13;;;1.42;;
69534;SDS011;56754;51.568;5.048;2022-11-28T04:51:43;3.80;;;1.50;;
69534;SDS011;56754;51.568;5.048;2022-11-28T04:54:24;3.78;;;1.33;;
69534;SDS011;56754;51.568;5.048;2022-11-28T04:56:56;3.58;;;1.30;;
69534;SDS011;56754;51.568;5.048;2022-11-28T04:59:33;4.17;;;1.40;;
69534;SDS011;56754;51.568;5.048;2022-11-28T05:02:00;4.18;;;1.40;;
69534;SDS011;56754;51.568;5.048;2022-11-28T05:04:28;3.85;;;1.40;;
69534;SDS011;56754;51.568;5.048;2022-11-28T05:07:04;4.50;;;1.70;;
69534;SDS011;56754;51.568;5.048;2022-11-28T05:09:31;3.17;;;1.30;;
69534;SDS011;56754;51.568;5.048;2022-11-28T05:11:56;3.63;;;1.43;;
69534;SDS011;56754;51.568;5.048;2022-11-28T05:14:22;3.97;;;1.37;;
69534;SDS011;56754;51.568;5.048;2022-11-28T05:16:47;4.30;;;1.50;;
69534;SDS011;56754;51.568;5.048;2022-11-28T05:19:13;4.10;;;1.50;;
69534;SDS011;56754;51.568;5.048;2022-11-28T05:21:38;3.78;;;1.10;;
69534;SDS011;56754;51.568;5.048;2022-11-28T05:24:03;3.27;;;1.20;;
69534;SDS011;56754;51.568;5.048;2022-11-28T05:26:29;4.43;;;1.40;;
69534;SDS011;56754;51.568;5.048;2022-11-28T05:28:54;4.30;;;1.50;;
69534;SDS011;56754;51.568;5.048;2022-11-28T05:31:19;3.70;;;1.40;;
69534;SDS011;56754;51.568;5.048;2022-11-28T05:33:45;3.75;;;1.40;;
69534;SDS011;56754;51.568;5.048;2022-11-28T05:36:12;3.70;;;1.50;;
69534;SDS011;56754;51.568;5.048;2022-11-28T05:38:38;3.13;;;1.10;;
69534;SDS011;56754;51.568;5.048;2022-11-28T05:41:04;4.55;;;1.60;;
69534;SDS011;56754;51.568;5.048;2022-11-28T05:43:29;3.57;;;1.37;;
69534;SDS011;56754;51.568;5.048;2022-11-28T05:45:55;3.83;;;1.75;;
69534;SDS011;56754;51.568;5.048;2022-11-28T05:48:21;4.53;;;1.73;;
69534;SDS011;56754;51.568;5.048;2022-11-28T05:50:47;3.97;;;1.60;;
69534;SDS011;56754;51.568;5.048;2022-11-28T05:53:12;3.73;;;1.60;;
69534;SDS011;56754;51.568;5.048;2022-11-28T05:55:38;4.20;;;1.80;;
69534;SDS011;56754;51.568;5.048;2022-11-28T05:58:04;4.13;;;1.45;;
69534;SDS011;56754;51.568;5.048;2022-11-28T06:00:29;4.05;;;1.85;;
69534;SDS011;56754;51.568;5.048;2022-11-28T06:02:55;4.00;;;1.63;;
69534;SDS011;56754;51.568;5.048;2022-11-28T06:05:21;4.70;;;1.65;;
69534;SDS011;56754;51.568;5.048;2022-11-28T06:07:47;3.70;;;1.67;;
69534;SDS011;56754;51.568;5.048;2022-11-28T06:10:12;4.23;;;1.80;;
69534;SDS011;56754;51.568;5.048;2022-11-28T06:12:37;4.47;;;1.93;;
69534;SDS011;56754;51.568;5.048;2022-11-28T06:15:03;5.53;;;2.20;;
69534;SDS011;56754;51.568;5.048;2022-11-28T06:17:29;4.37;;;1.93;;
69534;SDS011;56754;51.568;5.048;2022-11-28T06:19:55;4.83;;;2.30;;
69534;SDS011;56754;51.568;5.048;2022-11-28T06:22:20;4.47;;;2.00;;
69534;SDS011;56754;51.568;5.048;2022-11-28T06:24:46;5.32;;;2.17;;
69534;SDS011;56754;51.568;5.048;2022-11-28T06:27:11;4.60;;;2.20;;
69534;SDS011;56754;51.568;5.048;2022-11-28T06:29:36;5.40;;;2.33;;
69534;SDS011;56754;51.568;5.048;2022-11-28T06:32:02;4.77;;;2.27;;
69534;SDS011;56754;51.568;5.048;2022-11-28T06:34:28;4.90;;;2.42;;
69534;SDS011;56754;51.568;5.048;2022-11-28T06:36:53;4.67;;;2.70;;
69534;SDS011;56754;51.568;5.048;2022-11-28T06:39:18;4.90;;;2.40;;
69534;SDS011;56754;51.568;5.048;2022-11-28T06:41:44;4.80;;;2.40;;
69534;SDS011;56754;51.568;5.048;2022-11-28T06:44:13;4.63;;;2.47;;
69534;SDS011;56754;51.568;5.048;2022-11-28T06:46:39;4.70;;;2.30;;
69534;SDS011;56754;51.568;5.048;2022-11-28T06:49:05;4.95;;;2.35;;
69534;SDS011;56754;51.568;5.048;2022-11-28T06:51:30;5.33;;;2.50;;
69534;SDS011;56754;51.568;5.048;2022-11-28T06:53:55;5.87;;;3.07;;
69534;SDS011;56754;51.568;5.048;2022-11-28T06:56:21;5.30;;;2.70;;
69534;SDS011;56754;51.568;5.048;2022-11-28T06:58:46;5.70;;;3.00;;
69534;SDS011;56754;51.568;5.048;2022-11-28T07:01:19;5.78;;;2.90;;
69534;SDS011;56754;51.568;5.048;2022-11-28T07:03:46;5.80;;;2.95;;
69534;SDS011;56754;51.568;5.048;2022-11-28T07:06:12;5.90;;;3.03;;
69534;SDS011;56754;51.568;5.048;2022-11-28T07:08:39;4.97;;;2.58;;
69534;SDS011;56754;51.568;5.048;2022-11-28T07:13:43;6.40;;;3.58;;
69534;SDS011;56754;51.568;5.048;2022-11-28T07:16:13;5.80;;;3.28;;
69534;SDS011;56754;51.568;5.048;2022-11-28T07:18:41;6.37;;;3.47;;
69534;SDS011;56754;51.568;5.048;2022-11-28T07:21:07;7.00;;;3.50;;
69534;SDS011;56754;51.568;5.048;2022-11-28T07:23:33;6.82;;;3.58;;
69534;SDS011;56754;51.568;5.048;2022-11-28T07:25:58;7.60;;;3.70;;
69534;SDS011;56754;51.568;5.048;2022-11-28T07:28:25;5.95;;;3.20;;
69534;SDS011;56754;51.568;5.048;2022-11-28T07:30:58;7.47;;;4.15;;
69534;SDS011;56754;51.568;5.048;2022-11-28T07:33:24;7.50;;;3.87;;
69534;SDS011;56754;51.568;5.048;2022-11-28T07:35:49;6.63;;;3.53;;
69534;SDS011;56754;51.568;5.048;2022-11-28T07:38:14;7.47;;;3.67;;
69534;SDS011;56754;51.568;5.048;2022-11-28T07:40:39;7.17;;;3.90;;
69534;SDS011;56754;51.568;5.048;2022-11-28T07:43:05;6.60;;;3.80;;
69534;SDS011;56754;51.568;5.048;2022-11-28T07:45:30;7.83;;;3.90;;
69534;SDS011;56754;51.568;5.048;2022-11-28T07:47:55;8.63;;;4.10;;
69534;SDS011;56754;51.568;5.048;2022-11-28T07:50:20;8.27;;;4.20;;
69534;SDS011;56754;51.568;5.048;2022-11-28T07:52:46;7.37;;;4.10;;
69534;SDS011;56754;51.568;5.048;2022-11-28T07:55:11;7.83;;;4.47;;
69534;SDS011;56754;51.568;5.048;2022-11-28T07:57:36;7.83;;;4.30;;
69534;SDS011;56754;51.568;5.048;2022-11-28T08:00:02;8.13;;;4.77;;
69534;SDS011;56754;51.568;5.048;2022-11-28T08:02:27;10.63;;;4.97;;
69534;SDS011;56754;51.568;5.048;2022-11-28T08:04:53;10.33;;;5.00;;
69534;SDS011;56754;51.568;5.048;2022-11-28T08:07:18;8.70;;;4.90;;
69534;SDS011;56754;51.568;5.048;2022-11-28T08:09:43;9.70;;;5.33;;
69534;SDS011;56754;51.568;5.048;2022-11-28T08:12:09;10.37;;;5.10;;
69534;SDS011;56754;51.568;5.048;2022-11-28T08:14:34;9.57;;;4.87;;
69534;SDS011;56754;51.568;5.048;2022-11-28T08:16:59;9.63;;;5.17;;
69534;SDS011;56754;51.568;5.048;2022-11-28T08:19:24;9.87;;;5.37;;
69534;SDS011;56754;51.568;5.048;2022-11-28T08:21:50;11.73;;;5.63;;
69534;SDS011;56754;51.568;5.048;2022-11-28T08:24:15;10.03;;;5.30;;
69534;SDS011;56754;51.568;5.048;2022-11-28T08:26:40;8.35;;;4.80;;
69534;SDS011;56754;51.568;5.048;2022-11-28T08:29:05;9.67;;;5.37;;
69534;SDS011;56754;51.568;5.048;2022-11-28T08:31:32;8.93;;;4.90;;
69534;SDS011;56754;51.568;5.048;2022-11-28T08:34:00;8.30;;;4.93;;
69534;SDS011;56754;51.568;5.048;2022-11-28T08:36:28;9.97;;;5.63;;
69534;SDS011;56754;51.568;5.048;2022-11-28T08:38:53;8.47;;;4.80;;
69534;SDS011;56754;51.568;5.048;2022-11-28T08:41:20;10.52;;;5.30;;
69534;SDS011;56754;51.568;5.048;2022-11-28T08:43:46;10.77;;;5.70;;
69534;SDS011;56754;51.568;5.048;2022-11-28T08:46:13;8.98;;;5.00;;
69534;SDS011;56754;51.568;5.048;2022-11-28T08:48:41;9.60;;;5.32;;
69534;SDS011;56754;51.568;5.048;2022-11-28T08:51:07;8.60;;;4.70;;
69534;SDS011;56754;51.568;5.048;2022-11-28T08:53:35;10.57;;;5.75;;
69534;SDS011;56754;51.568;5.048;2022-11-28T08:56:00;12.20;;;5.70;;
69534;SDS011;56754;51.568;5.048;2022-11-28T08:58:26;10.53;;;5.67;;
69534;SDS011;56754;51.568;5.048;2022-11-28T09:00:51;9.17;;;5.27;;
69534;SDS011;56754;51.568;5.048;2022-11-28T09:03:17;9.50;;;5.20;;
69534;SDS011;56754;51.568;5.048;2022-11-28T09:05:44;10.82;;;5.50;;
69534;SDS011;56754;51.568;5.048;2022-11-28T09:08:14;11.00;;;5.55;;
69534;SDS011;56754;51.568;5.048;2022-11-28T09:10:41;10.85;;;4.88;;
69534;SDS011;56754;51.568;5.048;2022-11-28T09:13:07;10.30;;;5.22;;
69534;SDS011;56754;51.568;5.048;2022-11-28T09:15:33;9.53;;;4.83;;
69534;SDS011;56754;51.568;5.048;2022-11-28T09:17:58;9.98;;;4.95;;
69534;SDS011;56754;51.568;5.048;2022-11-28T09:20:24;9.10;;;5.27;;
69534;SDS011;56754;51.568;5.048;2022-11-28T09:22:49;9.33;;;5.27;;
69534;SDS011;56754;51.568;5.048;2022-11-28T09:25:15;10.93;;;5.40;;
69534;SDS011;56754;51.568;5.048;2022-11-28T09:27:40;11.33;;;6.20;;
69534;SDS011;56754;51.568;5.048;2022-11-28T09:30:05;10.43;;;5.57;;
69534;SDS011;56754;51.568;5.048;2022-11-28T09:32:32;11.00;;;5.63;;
69534;SDS011;56754;51.568;5.048;2022-11-28T09:34:57;12.00;;;6.40;;
69534;SDS011;56754;51.568;5.048;2022-11-28T09:37:23;11.25;;;6.47;;
69534;SDS011;56754;51.568;5.048;2022-11-28T09:39:49;11.87;;;6.20;;
69534;SDS011;56754;51.568;5.048;2022-11-28T09:42:19;10.77;;;5.93;;
69534;SDS011;56754;51.568;5.048;2022-11-28T09:44:51;13.65;;;7.22;;
69534;SDS011;56754;51.568;5.048;2022-11-28T09:47:22;11.30;;;5.83;;
69534;SDS011;56754;51.568;5.048;2022-11-28T09:55:08;11.18;;;6.45;;
69534;SDS011;56754;51.568;5.048;2022-11-28T09:57:49;11.52;;;6.40;;
69534;SDS011;56754;51.568;5.048;2022-11-28T10:00:17;11.13;;;6.07;;
69534;SDS011;56754;51.568;5.048;2022-11-28T10:11:26;13.65;;;7.97;;
69534;SDS011;56754;51.568;5.048;2022-11-28T10:22:37;13.30;;;8.25;;
69534;SDS011;56754;51.568;5.048;2022-11-28T10:25:17;12.70;;;7.80;;
69534;SDS011;56754;51.568;5.048;2022-11-28T10:27:52;16.53;;;8.93;;
69534;SDS011;56754;51.568;5.048;2022-11-28T10:30:22;14.02;;;8.35;;
69534;SDS011;56754;51.568;5.048;2022-11-28T10:32:54;15.45;;;8.88;;
69534;SDS011;56754;51.568;5.048;2022-11-28T10:38:13;17.50;;;9.38;;
69534;SDS011;56754;51.568;5.048;2022-11-28T10:40:49;15.77;;;8.93;;
69534;SDS011;56754;51.568;5.048;2022-11-28T10:48:59;19.65;;;10.20;;
69534;SDS011;56754;51.568;5.048;2022-11-28T10:57:33;18.07;;;9.83;;
69534;SDS011;56754;51.568;5.048;2022-11-28T11:02:39;24.17;;;12.85;;
69534;SDS011;56754;51.568;5.048;2022-11-28T11:05:26;22.08;;;12.30;;
69534;SDS011;56754;51.568;5.048;2022-11-28T11:08:02;23.88;;;12.75;;
69534;SDS011;56754;51.568;5.048;2022-11-28T11:13:26;26.25;;;14.18;;
69534;SDS011;56754;51.568;5.048;2022-11-28T11:16:02;21.90;;;11.82;;
69534;SDS011;56754;51.568;5.048;2022-11-28T11:18:34;23.75;;;12.43;;
69534;SDS011;56754;51.568;5.048;2022-11-28T11:23:46;28.43;;;14.53;;
69534;SDS011;56754;51.568;5.048;2022-11-28T11:26:24;28.73;;;14.65;;
69534;SDS011;56754;51.568;5.048;2022-11-28T11:28:51;27.10;;;13.80;;
69534;SDS011;56754;51.568;5.048;2022-11-28T11:31:18;27.87;;;15.90;;
69534;SDS011;56754;51.568;5.048;2022-11-28T11:33:43;30.23;;;15.50;;
69534;SDS011;56754;51.568;5.048;2022-11-28T11:41:35;24.58;;;13.43;;
69534;SDS011;56754;51.568;5.048;2022-11-28T11:46:49;28.48;;;14.68;;
69534;SDS011;56754;51.568;5.048;2022-11-28T11:49:26;29.15;;;15.38;;
69534;SDS011;56754;51.568;5.048;2022-11-28T11:51:57;28.10;;;14.90;;
69534;SDS011;56754;51.568;5.048;2022-11-28T11:54:24;23.10;;;13.10;;
69534;SDS011;56754;51.568;5.048;2022-11-28T11:56:50;25.83;;;15.37;;
69534;SDS011;56754;51.568;5.048;2022-11-28T11:59:23;24.45;;;13.82;;
69534;SDS011;56754;51.568;5.048;2022-11-28T12:01:50;26.00;;;14.45;;
69534;SDS011;56754;51.568;5.048;2022-11-28T12:04:23;28.90;;;15.07;;
69534;SDS011;56754;51.568;5.048;2022-11-28T12:06:54;27.83;;;14.25;;
69534;SDS011;56754;51.568;5.048;2022-11-28T12:09:42;27.67;;;15.18;;
69534;SDS011;56754;51.568;5.048;2022-11-28T12:12:14;30.70;;;15.90;;
69534;SDS011;56754;51.568;5.048;2022-11-28T12:14:42;31.05;;;15.52;;
69534;SDS011;56754;51.568;5.048;2022-11-28T12:17:17;28.83;;;14.10;;
69534;SDS011;56754;51.568;5.048;2022-11-28T12:20:52;27.63;;;14.52;;
69534;SDS011;56754;51.568;5.048;2022-11-28T12:25:50;28.40;;;15.37;;
69534;SDS011;56754;51.568;5.048;2022-11-28T12:28:32;30.90;;;15.88;;
69534;SDS011;56754;51.568;5.048;2022-11-28T12:34:15;28.55;;;14.93;;
69534;SDS011;56754;51.568;5.048;2022-11-28T12:37:08;33.50;;;16.65;;
69534;SDS011;56754;51.568;5.048;2022-11-28T12:42:41;33.50;;;16.30;;
69534;SDS011;56754;51.568;5.048;2022-11-28T12:50:35;31.70;;;16.00;;
69534;SDS011;56754;51.568;5.048;2022-11-28T13:00:59;34.55;;;17.35;;
69534;SDS011;56754;51.568;5.048;2022-11-28T13:15:12;32.35;;;16.02;;
69534;SDS011;56754;51.568;5.048;2022-11-28T13:17:53;33.15;;;16.42;;
69534;SDS011;56754;51.568;5.048;2022-11-28T13:20:41;31.17;;;18.17;;
69534;SDS011;56754;51.568;5.048;2022-11-28T13:23:19;31.20;;;16.55;;
69534;SDS011;56754;51.568;5.048;2022-11-28T13:28:18;31.23;;;17.10;;
69534;SDS011;56754;51.568;5.048;2022-11-28T13:30:51;32.00;;;16.42;;
69534;SDS011;56754;51.568;5.048;2022-11-28T13:36:02;32.10;;;16.53;;
69534;SDS011;56754;51.568;5.048;2022-11-28T13:38:48;30.95;;;16.58;;
69534;SDS011;56754;51.568;5.048;2022-11-28T13:41:25;30.40;;;17.35;;
69534;SDS011;56754;51.568;5.048;2022-11-28T13:44:03;34.95;;;16.42;;
69534;SDS011;56754;51.568;5.048;2022-11-28T13:46:47;31.73;;;17.83;;
69534;SDS011;56754;51.568;5.048;2022-11-28T13:51:46;35.28;;;16.73;;
69534;SDS011;56754;51.568;5.048;2022-11-28T13:56:43;30.63;;;16.13;;
69534;SDS011;56754;51.568;5.048;2022-11-28T13:59:15;30.13;;;16.65;;
69534;SDS011;56754;51.568;5.048;2022-11-28T14:01:44;29.60;;;15.93;;
69534;SDS011;56754;51.568;5.048;2022-11-28T14:04:13;29.27;;;15.90;;
69534;SDS011;56754;51.568;5.048;2022-11-28T14:17:23;28.13;;;16.27;;
69534;SDS011;56754;51.568;5.048;2022-11-28T14:23:00;27.42;;;15.63;;
69534;SDS011;56754;51.568;5.048;2022-11-28T14:25:49;31.75;;;16.20;;
69534;SDS011;56754;51.568;5.048;2022-11-28T14:28:23;31.42;;;15.63;;
69534;SDS011;56754;51.568;5.048;2022-11-28T14:33:40;30.50;;;16.03;;
69534;SDS011;56754;51.568;5.048;2022-11-28T14:36:23;28.50;;;15.33;;
69534;SDS011;56754;51.568;5.048;2022-11-28T14:47:16;29.20;;;14.25;;
69534;SDS011;56754;51.568;5.048;2022-11-28T14:49:41;27.93;;;15.00;;
69534;SDS011;56754;51.568;5.048;2022-11-28T14:52:07;26.08;;;14.45;;
69534;SDS011;56754;51.568;5.048;2022-11-28T14:54:44;26.80;;;14.47;;
69534;SDS011;56754;51.568;5.048;2022-11-28T14:59:56;26.73;;;14.35;;
69534;SDS011;56754;51.568;5.048;2022-11-28T15:02:36;32.28;;;14.52;;
69534;SDS011;56754;51.568;5.048;2022-11-28T15:05:18;23.47;;;13.33;;
69534;SDS011;56754;51.568;5.048;2022-11-28T15:14:21;27.20;;;14.23;;
69534;SDS011;56754;51.568;5.048;2022-11-28T15:16:46;28.67;;;14.35;;
69534;SDS011;56754;51.568;5.048;2022-11-28T15:21:58;28.05;;;14.05;;
69534;SDS011;56754;51.568;5.048;2022-11-28T15:26:57;23.67;;;13.10;;
69534;SDS011;56754;51.568;5.048;2022-11-28T15:29:32;25.33;;;13.48;;
69534;SDS011;56754;51.568;5.048;2022-11-28T15:31:58;22.30;;;12.70;;
69534;SDS011;56754;51.568;5.048;2022-11-28T15:34:27;22.00;;;12.13;;
69534;SDS011;56754;51.568;5.048;2022-11-28T15:36:56;24.67;;;13.50;;
69534;SDS011;56754;51.568;5.048;2022-11-28T15:39:24;26.73;;;14.60;;
69534;SDS011;56754;51.568;5.048;2022-11-28T15:41:50;24.40;;;12.95;;
69534;SDS011;56754;51.568;5.048;2022-11-28T15:44:16;24.60;;;13.27;;
69534;SDS011;56754;51.568;5.048;2022-11-28T15:46:41;25.33;;;12.60;;
69534;SDS011;56754;51.568;5.048;2022-11-28T15:49:21;21.58;;;11.77;;
69534;SDS011;56754;51.568;5.048;2022-11-28T15:51:53;21.63;;;11.77;;
69534;SDS011;56754;51.568;5.048;2022-11-28T15:54:41;23.17;;;11.63;;
69534;SDS011;56754;51.568;5.048;2022-11-28T15:57:06;20.77;;;11.40;;
69534;SDS011;56754;51.568;5.048;2022-11-28T15:59:42;20.50;;;11.20;;
69534;SDS011;56754;51.568;5.048;2022-11-28T16:02:15;19.83;;;11.60;;
69534;SDS011;56754;51.568;5.048;2022-11-28T16:04:45;24.55;;;11.95;;
69534;SDS011;56754;51.568;5.048;2022-11-28T16:07:11;21.00;;;11.13;;
69534;SDS011;56754;51.568;5.048;2022-11-28T16:09:39;19.38;;;11.02;;
69534;SDS011;56754;51.568;5.048;2022-11-28T16:12:21;23.60;;;11.50;;
69534;SDS011;56754;51.568;5.048;2022-11-28T16:14:47;23.63;;;11.47;;
69534;SDS011;56754;51.568;5.048;2022-11-28T16:17:19;19.77;;;10.82;;
69534;SDS011;56754;51.568;5.048;2022-11-28T16:19:50;20.77;;;10.60;;
69534;SDS011;56754;51.568;5.048;2022-11-28T16:22:18;20.52;;;10.48;;
69534;SDS011;56754;51.568;5.048;2022-11-28T16:24:51;19.02;;;10.90;;
69534;SDS011;56754;51.568;5.048;2022-11-28T16:27:52;21.30;;;10.60;;
69534;SDS011;56754;51.568;5.048;2022-11-28T16:32:54;17.07;;;10.30;;
69534;SDS011;56754;51.568;5.048;2022-11-28T16:35:24;21.98;;;10.73;;
69534;SDS011;56754;51.568;5.048;2022-11-28T16:37:50;17.80;;;9.80;;
69534;SDS011;56754;51.568;5.048;2022-11-28T16:40:19;19.73;;;10.07;;
69534;SDS011;56754;51.568;5.048;2022-11-28T16:42:56;17.73;;;9.95;;
69534;SDS011;56754;51.568;5.048;2022-11-28T16:45:26;16.67;;;9.80;;
69534;SDS011;56754;51.568;5.048;2022-11-28T16:48:00;21.10;;;10.25;;
69534;SDS011;56754;51.568;5.048;2022-11-28T16:50:26;20.08;;;9.93;;
69534;SDS011;56754;51.568;5.048;2022-11-28T16:55:55;17.70;;;8.25;;
69534;SDS011;56754;51.568;5.048;2022-11-28T16:58:21;17.83;;;8.93;;
69534;SDS011;56754;51.568;5.048;2022-11-28T17:00:55;18.65;;;9.02;;
69534;SDS011;56754;51.568;5.048;2022-11-28T17:03:39;15.53;;;9.20;;
69534;SDS011;56754;51.568;5.048;2022-11-28T17:06:10;17.85;;;8.48;;
69534;SDS011;56754;51.568;5.048;2022-11-28T17:08:42;23.30;;;9.73;;
69534;SDS011;56754;51.568;5.048;2022-11-28T17:11:07;25.33;;;8.23;;
69534;SDS011;56754;51.568;5.048;2022-11-28T17:13:33;23.67;;;8.60;;
69534;SDS011;56754;51.568;5.048;2022-11-28T17:15:58;24.13;;;9.03;;
69534;SDS011;56754;51.568;5.048;2022-11-28T17:18:23;18.20;;;8.00;;
69534;SDS011;56754;51.568;5.048;2022-11-28T17:20:51;20.10;;;7.68;;
69534;SDS011;56754;51.568;5.048;2022-11-28T17:23:17;18.43;;;7.63;;
69534;SDS011;56754;51.568;5.048;2022-11-28T17:25:42;23.10;;;7.90;;
69534;SDS011;56754;51.568;5.048;2022-11-28T17:28:07;21.40;;;7.97;;
69534;SDS011;56754;51.568;5.048;2022-11-28T17:30:33;20.63;;;7.43;;
69534;SDS011;56754;51.568;5.048;2022-11-28T17:32:58;16.40;;;6.97;;
69534;SDS011;56754;51.568;5.048;2022-11-28T17:35:23;19.60;;;7.87;;
69534;SDS011;56754;51.568;5.048;2022-11-28T17:37:53;16.23;;;7.03;;
69534;SDS011;56754;51.568;5.048;2022-11-28T17:40:18;21.00;;;6.97;;
69534;SDS011;56754;51.568;5.048;2022-11-28T17:42:44;19.10;;;6.70;;
69534;SDS011;56754;51.568;5.048;2022-11-28T17:45:12;17.47;;;6.50;;
69534;SDS011;56754;51.568;5.048;2022-11-28T17:47:38;16.80;;;6.40;;
69534;SDS011;56754;51.568;5.048;2022-11-28T17:50:04;17.80;;;6.77;;
69534;SDS011;56754;51.568;5.048;2022-11-28T17:52:30;16.10;;;6.05;;
69534;SDS011;56754;51.568;5.048;2022-11-28T17:54:55;15.93;;;6.17;;
69534;SDS011;56754;51.568;5.048;2022-11-28T17:57:21;16.03;;;5.83;;
69534;SDS011;56754;51.568;5.048;2022-11-28T17:59:46;17.30;;;5.67;;
69534;SDS011;56754;51.568;5.048;2022-11-28T18:02:11;15.90;;;6.33;;
69534;SDS011;56754;51.568;5.048;2022-11-28T18:04:36;14.67;;;5.40;;
69534;SDS011;56754;51.568;5.048;2022-11-28T18:07:02;12.57;;;5.73;;
69534;SDS011;56754;51.568;5.048;2022-11-28T18:09:27;15.73;;;6.03;;
69534;SDS011;56754;51.568;5.048;2022-11-28T18:11:52;16.27;;;5.72;;
69534;SDS011;56754;51.568;5.048;2022-11-28T18:14:18;14.23;;;5.47;;